createdAt,value
2018-03-08T00:00:06.259Z,84.78
2018-03-08T00:02:34.570Z,85.06
2018-03-08T00:05:02.880Z,84.79
2018-03-08T00:07:31.227Z,84.47
2018-03-08T00:09:59.536Z,83.93
2018-03-08T00:12:27.827Z,83.53
2018-03-08T00:14:56.525Z,83.54
2018-03-08T00:17:24.852Z,83.21
2018-03-08T00:19:53.155Z,82.97
2018-03-08T00:22:21.504Z,83.51
2018-03-08T00:24:49.833Z,84.19
2018-03-08T00:27:18.808Z,85.53
2018-03-08T00:29:47.163Z,85.89
2018-03-08T00:32:15.475Z,85.58
2018-03-08T00:34:43.779Z,85.89
2018-03-08T00:37:12.828Z,86.02
2018-03-08T00:39:41.129Z,86.16
2018-03-08T00:42:09.467Z,86.18
2018-03-08T00:44:37.771Z,86.38
2018-03-08T00:47:06.092Z,86.45
2018-03-08T00:49:34.428Z,86.55
2018-03-08T00:52:03.212Z,86.66
2018-03-08T00:54:31.505Z,86.61
2018-03-08T00:56:59.841Z,86.45
2018-03-08T00:59:28.212Z,86.54
2018-03-08T01:01:56.513Z,86.83
2018-03-08T01:04:24.809Z,87.48
2018-03-08T01:06:53.470Z,87.54
2018-03-08T01:09:21.770Z,88.09
2018-03-08T01:11:50.067Z,88.07
2018-03-08T01:14:19.170Z,88.45
2018-03-08T01:16:48.231Z,88.58
2018-03-08T01:19:16.559Z,88.94
2018-03-08T01:21:44.926Z,89.62
2018-03-08T01:24:13.260Z,89.83
2018-03-08T01:26:41.592Z,90.28
2018-03-08T01:29:09.930Z,90.23
2018-03-08T01:31:38.814Z,89.76
2018-03-08T01:34:07.120Z,89.25
2018-03-08T01:36:35.419Z,89.09
2018-03-08T01:39:03.859Z,89.02
2018-03-08T01:41:32.163Z,88.55
2018-03-08T01:44:00.470Z,88.34
2018-03-08T01:46:28.848Z,88.15
2018-03-08T01:48:57.153Z,88.58
2018-03-08T01:51:25.465Z,88.82
2018-03-08T01:53:54.267Z,89.12
2018-03-08T01:56:22.564Z,89.22
2018-03-08T01:58:50.868Z,88.90
2018-03-08T02:01:19.520Z,88.47
2018-03-08T02:03:47.832Z,88.34
2018-03-08T02:06:16.419Z,88.41
2018-03-08T02:08:44.785Z,87.98
2018-03-08T02:11:13.108Z,87.75
2018-03-08T02:13:41.435Z,87.69
2018-03-08T02:16:09.744Z,87.57
2018-03-08T02:18:38.256Z,86.97
2018-03-08T02:21:06.561Z,87.19
2018-03-08T02:23:34.864Z,87.21
2018-03-08T02:26:03.515Z,87.41
2018-03-08T02:28:31.827Z,87.48
2018-03-08T02:31:00.123Z,87.59
2018-03-08T02:33:28.960Z,87.77
2018-03-08T02:35:57.854Z,88.04
2018-03-08T02:38:26.171Z,88.61
2018-03-08T02:40:54.664Z,88.97
2018-03-08T02:43:22.973Z,89.24
2018-03-08T02:45:51.294Z,89.47
2018-03-08T02:48:19.485Z,89.86
2018-03-08T02:50:48.407Z,89.89
2018-03-08T02:53:16.712Z,90.39
2018-03-08T02:55:45.025Z,90.60
2018-03-08T02:58:13.701Z,90.87
2018-03-08T03:00:41.999Z,91.19
2018-03-08T03:03:10.296Z,91.32
2018-03-08T03:05:39.389Z,91.39
2018-03-08T03:08:09.088Z,91.32
2018-03-08T03:10:37.475Z,91.43
2018-03-08T03:13:05.775Z,91.44
2018-03-08T03:15:34.088Z,91.75
2018-03-08T03:18:02.435Z,91.98
2018-03-08T03:20:31.273Z,92.14
2018-03-08T03:23:02.119Z,91.77
2018-03-08T03:25:30.888Z,91.40
2018-03-08T03:27:59.435Z,91.40
2018-03-08T03:30:27.776Z,91.26
2018-03-08T03:32:56.088Z,91.23
2018-03-08T03:35:24.390Z,91.09
2018-03-08T03:37:54.032Z,90.81
2018-03-08T03:40:22.335Z,90.97
2018-03-08T03:42:50.659Z,91.35
2018-03-08T03:45:18.999Z,91.53
2018-03-08T03:47:47.326Z,91.82
2018-03-08T03:50:15.925Z,91.79
2018-03-08T03:52:44.324Z,91.62
2018-03-08T03:55:12.673Z,91.52
2018-03-08T03:57:41.153Z,91.53
2018-03-08T04:00:09.495Z,91.36
2018-03-08T04:02:37.799Z,91.37
2018-03-08T04:05:06.832Z,91.50
2018-03-08T04:07:35.907Z,91.67
2018-03-08T04:10:04.209Z,91.93
2018-03-08T04:12:33.311Z,92.32
2018-03-08T04:15:01.629Z,92.63
2018-03-08T04:17:30.117Z,93.24
2018-03-08T04:19:58.794Z,93.49
2018-03-08T04:22:27.195Z,93.78
2018-03-08T04:24:55.500Z,94.05
2018-03-08T04:27:24.608Z,94.18
2018-03-08T04:29:53.205Z,94.26
2018-03-08T04:32:21.543Z,94.21
2018-03-08T04:34:49.893Z,93.99
2018-03-08T04:37:18.192Z,93.51
2018-03-08T04:39:46.494Z,93.25
2018-03-08T04:42:14.828Z,93.06
2018-03-08T04:44:43.142Z,92.75
2018-03-08T04:47:12.484Z,92.62
2018-03-08T04:49:40.782Z,92.72
2018-03-08T04:52:09.085Z,92.68
2018-03-08T04:54:37.441Z,92.69
2018-03-08T04:57:05.742Z,92.78
2018-03-08T04:59:34.048Z,92.92
2018-03-08T05:02:02.385Z,92.82
2018-03-08T05:04:31.180Z,92.68
2018-03-08T05:06:59.831Z,92.68
2018-03-08T05:09:28.136Z,92.64
2018-03-08T05:11:56.441Z,92.76
2018-03-08T05:14:25.578Z,92.83
2018-03-08T05:16:53.883Z,93.10
2018-03-08T05:19:22.203Z,93.09
2018-03-08T05:21:50.580Z,93.14
2018-03-08T05:24:18.877Z,93.03
2018-03-08T05:26:52.811Z,93.17
2018-03-08T05:29:22.738Z,93.14
2018-03-08T05:31:51.867Z,93.30
2018-03-08T05:34:20.947Z,93.47
2018-03-08T05:36:49.251Z,93.53
2018-03-08T05:39:19.049Z,93.71
2018-03-08T05:41:47.466Z,93.53
2018-03-08T05:44:16.376Z,93.37
2018-03-08T05:46:44.885Z,93.25
2018-03-08T05:49:13.267Z,93.19
2018-03-08T05:51:42.347Z,93.15
2018-03-08T05:54:10.669Z,93.31
2018-03-08T05:56:39.539Z,93.71
2018-03-08T05:59:08.636Z,94.23
2018-03-08T06:01:37.051Z,94.67
2018-03-08T06:04:05.428Z,94.89
2018-03-08T06:06:33.764Z,94.96
2018-03-08T06:09:02.064Z,94.99
2018-03-08T06:11:30.409Z,95.07
2018-03-08T06:13:58.708Z,95.19
2018-03-08T06:16:29.017Z,95.27
2018-03-08T06:18:57.400Z,95.15
2018-03-08T06:21:25.750Z,94.86
2018-03-08T06:23:58.055Z,94.83
2018-03-08T06:26:26.363Z,94.70
2018-03-08T06:28:55.041Z,95.07
2018-03-08T06:31:23.354Z,95.44
2018-03-08T06:33:51.651Z,95.03
2018-03-08T06:36:20.312Z,94.38
2018-03-08T06:38:48.629Z,93.90
2018-03-08T06:41:16.924Z,93.76
2018-03-08T06:43:46.056Z,92.77
2018-03-08T06:46:13.704Z,92.08
2018-03-08T06:48:42.003Z,90.50
2018-03-08T06:51:16.741Z,88.52
2018-03-08T06:53:45.052Z,87.04
2018-03-08T06:56:14.604Z,89.07
2018-03-08T06:58:43.011Z,88.88
2018-03-08T07:01:11.308Z,82.96
2018-03-08T07:03:40.133Z,78.92
2018-03-08T07:06:08.520Z,73.00
2018-03-08T07:08:36.823Z,67.00
2018-03-08T07:11:07.271Z,67.02
2018-03-08T07:13:35.604Z,67.63
2018-03-08T07:16:03.950Z,66.54
2018-03-08T07:18:32.834Z,63.44
2018-03-08T07:21:01.180Z,59.29
2018-03-08T07:23:29.483Z,57.68
2018-03-08T07:25:57.851Z,56.84
2018-03-08T07:28:26.178Z,57.20
2018-03-08T07:30:54.480Z,55.34
2018-03-08T07:33:22.840Z,56.74
2018-03-08T07:35:50.960Z,54.63
2018-03-08T07:38:19.263Z,52.81
2018-03-08T07:40:47.572Z,52.13
2018-03-08T07:43:15.700Z,49.55
2018-03-08T07:45:43.999Z,49.67
2018-03-08T07:48:12.353Z,50.31
2018-03-08T07:50:40.652Z,47.82
2018-03-08T07:53:09.342Z,44.20
2018-03-08T07:55:37.536Z,43.22
2018-03-08T07:58:05.849Z,43.67
2018-03-08T08:00:34.229Z,45.60
2018-03-08T08:03:02.527Z,48.37
2018-03-08T08:19:05.468Z,42.62
2018-03-08T08:21:34.752Z,41.05
2018-03-08T08:24:03.060Z,40.23
2018-03-08T08:26:31.356Z,39.09
2018-03-08T08:29:00.476Z,39.71
2018-03-08T08:31:30.144Z,40.39
2018-03-08T08:33:58.272Z,39.11
2018-03-08T08:36:26.588Z,39.49
2018-03-08T08:38:54.898Z,43.58
2018-03-08T08:41:23.231Z,42.40
2018-03-08T08:43:51.543Z,41.44
2018-03-08T08:46:19.851Z,40.06
2018-03-08T08:48:48.196Z,38.82
2018-03-08T08:51:16.504Z,38.90
2018-03-08T08:53:44.808Z,39.72
2018-03-08T08:56:13.689Z,41.76
2018-03-08T08:58:42.024Z,38.18
2018-03-08T09:01:10.772Z,38.78
2018-03-08T09:03:39.242Z,38.23
2018-03-08T09:06:07.548Z,41.69
2018-03-08T09:08:35.908Z,45.93
2018-03-08T09:11:04.208Z,55.06
2018-03-08T09:13:33.203Z,57.73
2018-03-08T09:16:01.508Z,53.57
2018-03-08T09:18:29.812Z,44.93
2018-03-08T09:20:58.204Z,34.18
2018-03-08T09:23:26.568Z,28.54
2018-03-08T09:25:54.913Z,30.62
2018-03-08T09:28:23.694Z,30.34
2018-03-08T09:30:52.040Z,26.34
2018-03-08T09:33:20.354Z,25.88
2018-03-08T09:35:48.667Z,34.00
2018-03-08T09:38:17.001Z,30.07
2018-03-08T09:40:45.307Z,23.79
2018-03-08T09:43:13.685Z,20.35
2018-03-08T09:45:42.755Z,22.73
2018-03-08T09:48:11.068Z,21.64
2018-03-08T09:50:39.411Z,18.28
2018-03-08T09:53:07.748Z,22.07
2018-03-08T09:55:36.116Z,21.55
2018-03-08T09:58:04.416Z,21.54
2018-03-08T10:00:32.736Z,22.07
2018-03-08T10:03:01.104Z,18.69
2018-03-08T10:05:29.458Z,18.34
2018-03-08T10:07:57.908Z,24.60
2018-03-08T10:10:26.212Z,38.53
2018-03-08T10:12:54.527Z,32.34
2018-03-08T10:15:23.285Z,37.30
2018-03-08T10:17:51.606Z,28.93
2018-03-08T10:20:20.688Z,22.59
2018-03-08T10:22:49.930Z,18.95
2018-03-08T10:25:18.204Z,21.52
2018-03-08T10:27:46.540Z,35.30
2018-03-08T10:30:15.673Z,29.94
2018-03-08T10:32:43.984Z,31.28
2018-03-08T10:35:12.287Z,27.10
2018-03-08T10:37:40.652Z,29.37
2018-03-08T10:40:08.964Z,24.18
2018-03-08T10:45:07.195Z,30.76
2018-03-08T10:47:35.483Z,39.70
2018-03-08T10:50:03.879Z,43.77
2018-03-08T10:52:34.509Z,44.92
2018-03-08T10:55:03.793Z,36.39
2018-03-08T10:57:32.099Z,31.59
2018-03-08T11:00:00.449Z,30.75
2018-03-08T11:02:34.560Z,40.38
2018-03-08T11:05:05.118Z,40.79
2018-03-08T11:07:34.032Z,37.02
2018-03-08T11:10:02.384Z,37.86
2018-03-08T11:12:30.696Z,33.05
2018-03-08T11:14:59.139Z,34.55
2018-03-08T11:17:27.450Z,39.27
2018-03-08T11:19:55.852Z,41.45
2018-03-08T11:22:24.251Z,42.45
2018-03-08T11:24:52.633Z,43.65
2018-03-08T11:27:20.982Z,38.30
2018-03-08T11:29:49.296Z,32.21
2018-03-08T11:32:17.750Z,32.02
2018-03-08T11:34:46.420Z,30.52
2018-03-08T11:37:15.167Z,33.59
2018-03-08T11:39:43.519Z,34.75
2018-03-08T11:42:11.955Z,37.21
2018-03-08T11:44:40.408Z,36.24
2018-03-08T11:47:09.058Z,32.13
2018-03-08T11:49:37.364Z,28.26
2018-03-08T11:52:05.735Z,30.61
2018-03-08T11:54:34.400Z,30.29
2018-03-08T11:57:02.710Z,31.41
2018-03-08T11:59:31.024Z,31.93
2018-03-08T12:02:05.530Z,29.52
2018-03-08T12:04:33.841Z,26.57
2018-03-08T12:07:02.152Z,26.75
2018-03-08T12:09:30.531Z,26.83
2018-03-08T12:11:58.866Z,26.27
2018-03-08T12:14:27.177Z,25.95
2018-03-08T12:16:56.221Z,27.06
2018-03-08T12:19:24.529Z,27.11
2018-03-08T12:21:52.835Z,26.71
2018-03-08T12:24:21.208Z,26.21
2018-03-08T12:26:49.531Z,26.70
2018-03-08T12:29:17.840Z,27.42
2018-03-08T12:31:46.180Z,24.45
2018-03-08T12:34:15.665Z,25.76
2018-03-08T12:36:44.017Z,27.67
2018-03-08T12:39:12.467Z,26.24
2018-03-08T12:41:40.891Z,24.12
2018-03-08T12:44:09.310Z,22.18
2018-03-08T12:46:37.698Z,20.67
2018-03-08T12:49:06.083Z,22.37
2018-03-08T12:51:34.391Z,25.04
2018-03-08T12:54:02.700Z,27.32
2018-03-08T12:56:31.179Z,29.25
2018-03-08T12:58:59.547Z,26.17
2018-03-08T13:01:27.957Z,24.17
2018-03-08T13:03:57.032Z,27.26
2018-03-08T13:06:25.519Z,29.05
2018-03-08T13:08:54.168Z,31.21
2018-03-08T13:11:22.680Z,30.68
2018-03-08T13:13:50.996Z,32.47
2018-03-08T13:16:20.096Z,32.77
2018-03-08T13:18:48.886Z,33.71
2018-03-08T13:21:17.389Z,33.37
2018-03-08T13:23:45.824Z,33.40
2018-03-08T13:26:14.181Z,33.90
2018-03-08T13:28:43.108Z,33.71
2018-03-08T13:31:11.644Z,33.39
2018-03-08T13:33:39.976Z,33.41
2018-03-08T13:36:08.290Z,33.68
2018-03-08T13:38:37.004Z,34.05
2018-03-08T13:41:05.307Z,34.87
2018-03-08T13:43:33.616Z,34.96
2018-03-08T13:46:02.022Z,35.30
2018-03-08T13:48:30.417Z,36.25
2018-03-08T13:50:58.724Z,36.11
2018-03-08T13:53:27.103Z,35.85
2018-03-08T13:55:56.096Z,35.50
2018-03-08T13:58:24.406Z,33.04
2018-03-08T14:00:53.000Z,32.51
2018-03-08T14:03:22.083Z,32.82
2018-03-08T14:05:50.416Z,33.43
2018-03-08T14:08:18.758Z,32.55
2018-03-08T14:10:47.287Z,32.71
2018-03-08T14:13:15.727Z,33.82
2018-03-08T14:15:44.092Z,32.94
2018-03-08T14:18:12.403Z,32.61
2018-03-08T14:20:40.727Z,33.41
2018-03-08T14:23:09.088Z,33.50
2018-03-08T14:25:37.391Z,33.13
2018-03-08T14:28:05.703Z,33.72
2018-03-08T14:30:35.203Z,33.78
2018-03-08T14:33:03.516Z,33.46
2018-03-08T14:35:32.212Z,33.56
2018-03-08T14:38:00.527Z,33.28
2018-03-08T14:40:28.836Z,33.36
2018-03-08T14:42:58.376Z,33.08
2018-03-08T14:45:26.699Z,33.40
2018-03-08T14:47:55.065Z,33.81
2018-03-08T14:50:23.431Z,34.14
2018-03-08T14:52:51.744Z,34.77
2018-03-08T14:55:20.669Z,35.50
2018-03-08T14:57:48.995Z,35.60
2018-03-08T15:00:17.629Z,36.22
2018-03-08T15:02:46.069Z,36.78
2018-03-08T15:05:14.884Z,37.17
2018-03-08T15:07:43.568Z,36.81
2018-03-08T15:10:12.499Z,37.00
2018-03-08T15:12:40.938Z,37.20
2018-03-08T15:15:09.216Z,37.03
2018-03-08T15:17:38.067Z,36.95
2018-03-08T15:20:07.329Z,37.08
2018-03-08T15:22:36.344Z,37.12
2018-03-08T15:25:04.652Z,37.21
2018-03-08T15:27:33.028Z,37.42
2018-03-08T15:30:01.344Z,37.40
2018-03-08T15:32:29.656Z,37.60
2018-03-08T15:34:57.995Z,37.87
2018-03-08T15:37:26.660Z,37.92
2018-03-08T15:39:54.972Z,38.79
2018-03-08T15:42:23.331Z,38.40
2018-03-08T15:44:52.391Z,38.17
2018-03-08T15:47:21.082Z,38.10
2018-03-08T15:49:49.389Z,38.13
2018-03-08T15:52:18.464Z,38.54
2018-03-08T15:54:47.416Z,38.20
2018-03-08T15:57:15.787Z,38.41
2018-03-08T15:59:44.140Z,38.07
2018-03-08T16:02:14.747Z,37.80
2018-03-08T16:04:43.065Z,38.16
2018-03-08T16:21:09.233Z,40.75
2018-03-08T16:23:38.072Z,40.66
2018-03-08T16:26:06.381Z,41.04
2018-03-08T16:28:34.820Z,41.69
2018-03-08T16:31:03.137Z,41.93
2018-03-08T16:33:32.256Z,41.93
2018-03-08T16:36:01.203Z,42.27
2018-03-08T16:38:29.517Z,42.67
2018-03-08T16:40:57.839Z,43.11
2018-03-08T16:43:26.212Z,43.55
2018-03-08T16:45:55.296Z,43.49
2018-03-08T16:48:23.839Z,43.45
2018-03-08T16:50:52.384Z,43.87
2018-03-08T16:53:20.771Z,44.15
2018-03-08T16:55:49.076Z,43.65
2018-03-08T16:58:17.740Z,44.14
2018-03-08T17:00:46.053Z,44.12
2018-03-08T17:03:14.643Z,44.37
2018-03-08T17:05:43.519Z,44.32
2018-03-08T17:08:11.836Z,44.70
2018-03-08T17:10:40.917Z,44.98
2018-03-08T17:13:09.802Z,45.27
2018-03-08T17:15:38.761Z,45.52
2018-03-08T17:18:07.090Z,46.04
2018-03-08T17:20:35.457Z,46.90
2018-03-08T17:23:03.779Z,47.59
2018-03-08T17:25:33.117Z,48.78
2018-03-08T17:28:02.282Z,49.31
2018-03-08T17:30:30.948Z,49.33
2018-03-08T17:32:59.309Z,49.29
2018-03-08T17:35:27.727Z,49.40
2018-03-08T17:37:56.085Z,49.38
2018-03-08T17:40:25.200Z,50.06
2018-03-08T17:42:53.503Z,50.22
2018-03-08T17:45:21.892Z,50.48
2018-03-08T17:47:50.260Z,51.07
2018-03-08T17:50:18.570Z,51.51
2018-03-08T17:52:46.878Z,52.16
2018-03-08T17:55:15.959Z,52.89
2018-03-08T17:57:44.923Z,53.62
2018-03-08T18:00:13.232Z,54.14
2018-03-08T18:02:42.370Z,54.79
2018-03-08T18:05:10.676Z,54.98
2018-03-08T18:07:38.993Z,55.62
2018-03-08T18:10:07.363Z,56.20
2018-03-08T18:12:35.687Z,56.99
2018-03-08T18:15:05.722Z,56.66
2018-03-08T18:17:34.112Z,57.00
2018-03-08T18:20:02.465Z,57.40
2018-03-08T18:22:30.776Z,58.20
2018-03-08T18:24:59.141Z,58.61
2018-03-08T18:27:27.868Z,58.42
2018-03-08T18:29:56.177Z,58.34
2018-03-08T18:32:25.128Z,59.14
2018-03-08T18:34:54.196Z,60.64
2018-03-08T18:37:22.555Z,60.48
2018-03-08T18:39:50.892Z,60.38
2018-03-08T18:42:24.673Z,60.76
2018-03-08T18:44:53.271Z,60.24
2018-03-08T18:47:21.516Z,60.89
2018-03-08T18:49:49.855Z,61.66
2018-03-08T18:52:19.063Z,62.13
2018-03-08T18:54:47.401Z,62.68
2018-03-08T18:57:16.487Z,61.95
2018-03-08T18:59:45.891Z,61.90
2018-03-08T19:02:14.326Z,62.70
2018-03-08T19:04:42.636Z,62.95
2018-03-08T19:07:10.948Z,63.55
2018-03-08T19:09:39.311Z,62.43
2018-03-08T19:12:08.387Z,61.75
2018-03-08T19:14:37.468Z,61.90
2018-03-08T19:17:05.800Z,62.55
2018-03-08T19:19:34.099Z,63.07
2018-03-08T19:22:02.553Z,63.29
2018-03-08T19:24:31.331Z,63.74
2018-03-08T19:27:00.300Z,63.55
2018-03-08T19:29:29.308Z,63.99
2018-03-08T19:31:58.383Z,64.09
2018-03-08T19:34:27.349Z,63.55
2018-03-08T19:36:56.584Z,63.41
2018-03-08T19:39:24.989Z,63.17
2018-03-08T19:41:56.096Z,63.23
2018-03-08T19:44:24.530Z,62.69
2018-03-08T19:46:53.799Z,62.24
2018-03-08T19:49:22.147Z,62.77
2018-03-08T19:51:51.861Z,63.29
2018-03-08T19:54:20.432Z,63.11
2018-03-08T19:56:50.035Z,62.77
2018-03-08T19:59:18.351Z,62.67
2018-03-08T20:01:47.512Z,63.06
2018-03-08T20:04:16.492Z,63.46
2018-03-08T20:06:44.808Z,63.41
2018-03-08T20:09:13.176Z,63.20
2018-03-08T20:11:41.545Z,62.39
2018-03-08T20:14:09.839Z,62.82
2018-03-08T20:16:38.756Z,62.79
2018-03-08T20:19:07.784Z,62.56
2018-03-08T20:21:36.115Z,62.41
2018-03-08T20:24:05.378Z,62.48
2018-03-08T20:26:34.348Z,62.66
2018-03-08T20:29:06.574Z,61.50
2018-03-08T20:31:35.348Z,61.53
2018-03-08T20:34:03.733Z,60.69
2018-03-08T20:36:32.062Z,60.31
2018-03-08T20:39:00.371Z,60.33
2018-03-08T20:41:30.816Z,60.90
2018-03-08T20:43:59.135Z,61.19
2018-03-08T20:46:27.435Z,60.58
2018-03-08T20:48:55.776Z,60.72
2018-03-08T20:51:24.619Z,61.09
2018-03-08T20:53:53.455Z,60.81
2018-03-08T20:56:21.774Z,60.13
2018-03-08T20:58:49.427Z,60.03
2018-03-08T21:01:17.864Z,59.37
2018-03-08T21:03:46.218Z,59.76
2018-03-08T21:06:14.880Z,60.92
2018-03-08T21:08:43.973Z,59.67
2018-03-08T21:11:11.621Z,60.67
2018-03-08T21:13:40.791Z,60.10
2018-03-08T21:16:09.535Z,60.33
2018-03-08T21:18:37.894Z,59.94
2018-03-08T21:21:07.032Z,59.78
2018-03-08T21:23:35.390Z,59.27
2018-03-08T21:26:04.432Z,59.00
2018-03-08T21:28:32.739Z,59.38
2018-03-08T21:31:01.773Z,59.64
2018-03-08T21:33:30.202Z,61.66
2018-03-08T21:35:58.539Z,60.60
2018-03-08T21:38:26.920Z,60.76
2018-03-08T21:40:55.931Z,60.33
2018-03-08T21:43:25.008Z,60.47
2018-03-08T21:45:53.231Z,60.45
2018-03-08T21:48:23.784Z,60.69
2018-03-08T21:50:52.968Z,60.98
2018-03-08T21:53:21.928Z,60.62
2018-03-08T21:55:52.011Z,60.89
2018-03-08T21:58:21.162Z,59.83
2018-03-08T22:00:50.229Z,59.45
2018-03-08T22:03:18.504Z,58.92
2018-03-08T22:05:47.336Z,58.69
2018-03-08T22:08:15.656Z,58.01
2018-03-08T22:10:44.115Z,57.61
2018-03-08T22:13:12.428Z,57.46
2018-03-08T22:15:40.922Z,57.29
2018-03-08T22:18:09.833Z,57.86
2018-03-08T22:20:39.572Z,57.23
2018-03-08T22:23:08.177Z,56.83
2018-03-08T22:25:38.768Z,57.76
2018-03-08T22:28:07.853Z,57.44
2018-03-08T22:30:36.675Z,57.16
2018-03-08T22:33:05.913Z,56.63
2018-03-08T22:35:35.066Z,56.05
2018-03-08T22:38:03.395Z,55.46
2018-03-08T22:40:31.708Z,55.30
2018-03-08T22:43:00.196Z,55.41
2018-03-08T22:45:30.575Z,54.47
2018-03-08T22:47:59.871Z,54.28
2018-03-08T22:50:29.165Z,54.54
2018-03-08T22:53:00.139Z,55.36
2018-03-08T22:55:28.448Z,57.16
2018-03-08T22:57:56.753Z,60.10
2018-03-08T23:00:25.551Z,60.70
2018-03-08T23:03:00.009Z,65.72
2018-03-08T23:05:29.160Z,71.90
2018-03-08T23:07:57.477Z,74.98
2018-03-08T23:10:25.792Z,76.87
2018-03-08T23:12:54.730Z,77.90
2018-03-08T23:15:23.492Z,78.58
2018-03-08T23:17:51.800Z,79.01
2018-03-08T23:20:20.164Z,79.49
2018-03-08T23:22:49.668Z,79.68
2018-03-08T23:25:18.696Z,80.13
2018-03-08T23:27:47.011Z,80.48
2018-03-08T23:30:15.315Z,80.44
2018-03-08T23:32:43.736Z,80.17
2018-03-08T23:35:13.095Z,80.21
2018-03-08T23:37:42.156Z,80.24
2018-03-08T23:40:10.524Z,80.36
2018-03-08T23:42:38.836Z,80.53
2018-03-08T23:45:07.161Z,80.27
2018-03-08T23:47:35.497Z,80.17
2018-03-08T23:50:03.840Z,80.39
2018-03-08T23:52:32.167Z,80.40
2018-03-08T23:55:00.468Z,80.38
2018-03-08T23:57:28.799Z,80.32
2018-03-08T23:59:57.099Z,80.08
